sensor_id;sensor_type;location;lat;lon;timestamp;pressure;altitude;pressure_sealevel;temperature;humidity
30338;BME280;17143;51.888;5.408;2023-03-04T00:11:22;102514.47;;;6.80;90.31
30338;BME280;17143;51.888;5.408;2023-03-04T00:26:24;102513.56;;;6.80;91.33
30338;BME280;17143;51.888;5.408;2023-03-04T00:41:26;102510.38;;;6.73;90.79
30338;BME280;17143;51.888;5.408;2023-03-04T00:56:28;102508.25;;;6.69;92.19
30338;BME280;17143;51.888;5.408;2023-03-04T01:11:31;102501.06;;;6.75;92.86
30338;BME280;17143;51.888;5.408;2023-03-04T01:26:33;102498.97;;;6.71;93.12
30338;BME280;17143;51.888;5.408;2023-03-04T01:41:35;102481.28;;;6.67;93.08
30338;BME280;17143;51.888;5.408;2023-03-04T01:56:38;102467.16;;;6.64;93.97
30338;BME280;17143;51.888;5.408;2023-03-04T02:11:41;102460.00;;;6.61;94.49
30338;BME280;17143;51.888;5.408;2023-03-04T02:26:44;102440.97;;;6.61;93.17
30338;BME280;17143;51.888;5.408;2023-03-04T02:41:47;102428.47;;;6.57;93.68
30338;BME280;17143;51.888;5.408;2023-03-04T02:56:52;102425.75;;;6.55;92.89
30338;BME280;17143;51.888;5.408;2023-03-04T03:11:56;102413.13;;;6.58;92.45
30338;BME280;17143;51.888;5.408;2023-03-04T03:26:58;102400.91;;;6.57;93.38
30338;BME280;17143;51.888;5.408;2023-03-04T03:42:00;102398.03;;;6.54;93.00
30338;BME280;17143;51.888;5.408;2023-03-04T03:57:03;102404.28;;;6.56;93.24
30338;BME280;17143;51.888;5.408;2023-03-04T04:12:05;102394.28;;;6.51;93.45
30338;BME280;17143;51.888;5.408;2023-03-04T04:27:08;102413.16;;;6.50;93.08
30338;BME280;17143;51.888;5.408;2023-03-04T04:42:11;102410.69;;;6.51;93.00
30338;BME280;17143;51.888;5.408;2023-03-04T04:57:13;102425.66;;;6.45;95.05
30338;BME280;17143;51.888;5.408;2023-03-04T05:12:15;102414.72;;;6.39;93.93
30338;BME280;17143;51.888;5.408;2023-03-04T05:27:17;102415.00;;;6.42;94.56
30338;BME280;17143;51.888;5.408;2023-03-04T05:42:19;102421.25;;;6.36;96.06
30338;BME280;17143;51.888;5.408;2023-03-04T05:57:21;102406.53;;;6.35;97.55
30338;BME280;17143;51.888;5.408;2023-03-04T06:12:23;102424.75;;;6.36;98.57
30338;BME280;17143;51.888;5.408;2023-03-04T06:27:25;102427.06;;;6.33;100.00
30338;BME280;17143;51.888;5.408;2023-03-04T06:42:27;102433.16;;;6.34;100.00
30338;BME280;17143;51.888;5.408;2023-03-04T06:57:29;102429.66;;;6.33;100.00
30338;BME280;17143;51.888;5.408;2023-03-04T07:12:31;102429.63;;;6.42;100.00
30338;BME280;17143;51.888;5.408;2023-03-04T07:27:33;102438.72;;;6.55;100.00
30338;BME280;17143;51.888;5.408;2023-03-04T07:42:35;102459.34;;;7.27;100.00
30338;BME280;17143;51.888;5.408;2023-03-04T07:57:44;102464.88;;;7.40;100.00
30338;BME280;17143;51.888;5.408;2023-03-04T08:12:46;102470.75;;;7.85;100.00
30338;BME280;17143;51.888;5.408;2023-03-04T08:27:48;102472.63;;;8.15;99.61
30338;BME280;17143;51.888;5.408;2023-03-04T08:42:50;102475.97;;;8.14;98.86
30338;BME280;17143;51.888;5.408;2023-03-04T08:57:52;102469.66;;;8.39;99.24
30338;BME280;17143;51.888;5.408;2023-03-04T09:12:55;102450.81;;;8.90;96.77
30338;BME280;17143;51.888;5.408;2023-03-04T09:27:57;102447.13;;;9.79;93.31
30338;BME280;17143;51.888;5.408;2023-03-04T09:43:01;102452.09;;;8.95;95.74
30338;BME280;17143;51.888;5.408;2023-03-04T09:58:10;102452.50;;;9.30;100.00
30338;BME280;17143;51.888;5.408;2023-03-04T10:13:21;102450.97;;;9.94;97.54
30338;BME280;17143;51.888;5.408;2023-03-04T10:28:29;102435.19;;;10.45;97.47
30338;BME280;17143;51.888;5.408;2023-03-04T10:43:31;102422.25;;;11.91;88.81
30338;BME280;17143;51.888;5.408;2023-03-04T10:58:33;102420.47;;;10.67;92.99
30338;BME280;17143;51.888;5.408;2023-03-04T11:13:35;102397.63;;;11.31;92.98
30338;BME280;17143;51.888;5.408;2023-03-04T11:28:42;102391.00;;;10.46;92.22
30338;BME280;17143;51.888;5.408;2023-03-04T11:43:47;102375.19;;;11.21;93.18
30338;BME280;17143;51.888;5.408;2023-03-04T12:14:30;102343.59;;;10.62;93.71
30338;BME280;17143;51.888;5.408;2023-03-04T12:29:40;102343.50;;;9.53;100.00
30338;BME280;17143;51.888;5.408;2023-03-04T12:44:55;102319.84;;;10.04;100.00
30338;BME280;17143;51.888;5.408;2023-03-04T13:00:13;102292.97;;;10.58;100.00
30338;BME280;17143;51.888;5.408;2023-03-04T13:15:28;102286.50;;;9.56;99.36
30338;BME280;17143;51.888;5.408;2023-03-04T13:46:40;102259.38;;;10.51;96.11
30338;BME280;17143;51.888;5.408;2023-03-04T14:01:53;102256.72;;;10.73;88.74
30338;BME280;17143;51.888;5.408;2023-03-04T14:16:58;102264.78;;;9.56;89.71
30338;BME280;17143;51.888;5.408;2023-03-04T14:32:03;102276.88;;;9.24;90.95
30338;BME280;17143;51.888;5.408;2023-03-04T14:47:10;102246.38;;;9.43;89.54
30338;BME280;17143;51.888;5.408;2023-03-04T15:02:23;102248.59;;;9.06;90.18
30338;BME280;17143;51.888;5.408;2023-03-04T15:17:29;102245.91;;;8.85;88.27
30338;BME280;17143;51.888;5.408;2023-03-04T15:32:31;102226.63;;;9.03;87.99
30338;BME280;17143;51.888;5.408;2023-03-04T15:47:33;102241.09;;;8.79;85.26
30338;BME280;17143;51.888;5.408;2023-03-04T16:02:35;102237.25;;;8.54;89.12
30338;BME280;17143;51.888;5.408;2023-03-04T16:17:37;102223.75;;;8.38;90.27
30338;BME280;17143;51.888;5.408;2023-03-04T16:32:39;102211.53;;;8.37;90.65
30338;BME280;17143;51.888;5.408;2023-03-04T16:47:41;102216.69;;;8.17;89.46
30338;BME280;17143;51.888;5.408;2023-03-04T17:02:44;102218.16;;;8.23;88.16
30338;BME280;17143;51.888;5.408;2023-03-04T17:17:50;102213.19;;;8.26;89.23
30338;BME280;17143;51.888;5.408;2023-03-04T17:32:52;102212.53;;;8.09;87.26
30338;BME280;17143;51.888;5.408;2023-03-04T17:47:54;102219.78;;;7.92;84.37
30338;BME280;17143;51.888;5.408;2023-03-04T18:02:56;102237.56;;;7.88;82.16
30338;BME280;17143;51.888;5.408;2023-03-04T18:17:58;102233.47;;;7.71;84.17
30338;BME280;17143;51.888;5.408;2023-03-04T18:33:00;102254.75;;;7.67;85.19
30338;BME280;17143;51.888;5.408;2023-03-04T18:48:03;102254.28;;;7.53;87.10
30338;BME280;17143;51.888;5.408;2023-03-04T19:03:08;102245.09;;;7.46;88.79
30338;BME280;17143;51.888;5.408;2023-03-04T19:18:12;102234.66;;;7.36;90.02
30338;BME280;17143;51.888;5.408;2023-03-04T19:33:14;102236.44;;;7.27;90.39
30338;BME280;17143;51.888;5.408;2023-03-04T19:48:16;102221.34;;;7.13;91.55
30338;BME280;17143;51.888;5.408;2023-03-04T20:03:18;102228.22;;;6.94;92.03
30338;BME280;17143;51.888;5.408;2023-03-04T20:18:21;102228.38;;;6.77;95.02
30338;BME280;17143;51.888;5.408;2023-03-04T20:33:23;102230.56;;;6.72;94.52
30338;BME280;17143;51.888;5.408;2023-03-04T20:48:25;102241.81;;;6.72;95.43
30338;BME280;17143;51.888;5.408;2023-03-04T21:03:27;102238.75;;;6.58;97.08
30338;BME280;17143;51.888;5.408;2023-03-04T21:18:29;102216.53;;;6.51;100.00
30338;BME280;17143;51.888;5.408;2023-03-04T21:33:33;102209.63;;;6.60;100.00
30338;BME280;17143;51.888;5.408;2023-03-04T21:48:36;102203.69;;;6.61;100.00
30338;BME280;17143;51.888;5.408;2023-03-04T22:03:38;102186.22;;;6.59;100.00
30338;BME280;17143;51.888;5.408;2023-03-04T22:18:40;102182.91;;;6.51;100.00
30338;BME280;17143;51.888;5.408;2023-03-04T22:33:43;102173.25;;;6.40;100.00
30338;BME280;17143;51.888;5.408;2023-03-04T22:48:45;102173.25;;;6.40;100.00
30338;BME280;17143;51.888;5.408;2023-03-04T23:03:48;102161.16;;;6.31;100.00
30338;BME280;17143;51.888;5.408;2023-03-04T23:18:50;102143.88;;;6.21;100.00
30338;BME280;17143;51.888;5.408;2023-03-04T23:33:53;102128.75;;;6.07;100.00
30338;BME280;17143;51.888;5.408;2023-03-04T23:48:55;102129.31;;;5.94;100.00
